Time;durP1;ratioP1;P1;durP2;ratioP2;P2;SDS_P1;SDS_P2;PMS_P1;PMS_P2;Temp;Humidity;BMP_temperature;BMP_pressure;BME280_temperature;BME280_humidity;BME280_pressure;Samples;Min_cycle;Max_cycle;Signal;HPM_P1;HPM_P2
2022/08/29 00:01:32;;;;;;;22.08;6.18;;;16.80;91.90;;;;;;4996855;28;20663;-89
2022/08/29 00:03:58;;;;;;;27.33;7.03;;;16.80;91.90;;;;;;4996579;28;20187;-89
2022/08/29 00:06:24;;;;;;;23.13;6.35;;;16.80;91.90;;;;;;4997350;28;20178;-90
2022/08/29 00:08:49;;;;;;;26.80;7.57;;;16.80;91.90;;;;;;4996417;28;20181;-90
2022/08/29 00:11:15;;;;;;;32.13;7.30;;;16.80;91.80;;;;;;4996434;28;20280;-89
2022/08/29 00:13:41;;;;;;;29.95;7.13;;;16.90;91.80;;;;;;4996256;28;20185;-90
2022/08/29 00:16:08;;;;;;;24.92;6.78;;;16.80;91.80;;;;;;4996322;28;20174;-90
2022/08/29 00:18:34;;;;;;;25.35;6.60;;;16.80;91.70;;;;;;4996256;28;20318;-90
2022/08/29 00:21:01;;;;;;;25.17;7.25;;;16.80;91.70;;;;;;4996728;28;20193;-89
2022/08/29 00:23:27;;;;;;;21.05;6.55;;;16.80;91.60;;;;;;4996312;28;20557;-89
2022/08/29 00:25:53;;;;;;;27.92;7.85;;;16.80;91.50;;;;;;4996221;28;20177;-90
2022/08/29 00:28:19;;;;;;;22.75;6.85;;;16.80;91.60;;;;;;4996878;28;20602;-89
2022/08/29 00:30:45;;;;;;;24.73;6.47;;;16.80;91.70;;;;;;4996128;28;20209;-89
2022/08/29 00:33:11;;;;;;;26.75;7.10;;;16.90;91.70;;;;;;4996166;28;20181;-90
2022/08/29 00:35:41;;;;;;;26.77;6.85;;;16.90;91.80;;;;;;4996983;28;20672;-90
2022/08/29 00:38:10;;;;;;;25.90;6.90;;;17.00;91.80;;;;;;4997390;28;20169;-90
2022/08/29 00:40:51;;;;;;;20.80;6.45;;;17.00;91.80;;;;;;5013545;28;20690;-89
2022/08/29 00:43:23;;;;;;;32.70;6.80;;;17.00;91.90;;;;;;4996077;28;20173;-90
2022/08/29 00:46:04;;;;;;;26.42;6.70;;;17.00;91.70;;;;;;4996184;28;20170;-89
2022/08/29 00:48:31;;;;;;;32.17;7.28;;;17.10;91.70;;;;;;4996196;28;20648;-90
2022/08/29 00:51:03;;;;;;;28.05;7.22;;;17.00;91.70;;;;;;4995838;28;20201;-90
2022/08/29 00:53:35;;;;;;;29.10;8.23;;;17.10;91.80;;;;;;4996089;28;20652;-90
2022/08/29 00:56:02;;;;;;;23.58;7.30;;;17.10;91.70;;;;;;5006345;28;20698;-90
2022/08/29 00:58:34;;;;;;;28.88;7.55;;;17.10;91.70;;;;;;4995874;28;20182;-90
2022/08/29 01:01:00;;;;;;;23.88;8.10;;;17.10;91.60;;;;;;4996166;28;20663;-90
2022/08/29 01:03:27;;;;;;;23.70;6.97;;;17.10;91.60;;;;;;4995951;28;20272;-90
2022/08/29 01:05:53;;;;;;;31.02;7.78;;;17.20;91.70;;;;;;5013444;28;20257;-89
2022/08/29 01:08:19;;;;;;;30.27;8.23;;;17.20;91.90;;;;;;4996097;28;20224;-90
2022/08/29 01:13:37;;;;;;;27.92;8.73;;;17.20;92.00;;;;;;5013887;28;20257;-90
2022/08/29 01:16:05;;;;;;;33.53;8.30;;;17.20;92.10;;;;;;4995603;28;20213;-90
2022/08/29 01:18:33;;;;;;;28.33;9.10;;;17.20;92.10;;;;;;4995614;28;20179;-89
2022/08/29 01:21:14;;;;;;;24.20;8.50;;;17.20;92.10;;;;;;4996019;28;20197;-90
2022/08/29 01:24:11;;;;;;;31.95;8.65;;;17.30;92.20;;;;;;4996603;28;20227;-89
2022/08/29 01:26:37;;;;;;;33.97;8.48;;;17.30;92.10;;;;;;4996550;28;20193;-90
2022/08/29 01:29:03;;;;;;;28.65;8.93;;;17.30;92.10;;;;;;4995602;28;20212;-90
2022/08/29 01:31:38;;;;;;;28.52;9.10;;;17.30;92.20;;;;;;5015409;23;20253;-90
2022/08/29 01:34:04;;;;;;;32.13;10.02;;;17.30;92.20;;;;;;4993662;28;20209;-90
2022/08/29 01:36:49;;;;;;;25.75;9.75;;;17.30;92.30;;;;;;4992606;28;20174;-90
2022/08/29 01:39:16;;;;;;;29.15;9.52;;;17.30;92.40;;;;;;4992648;28;20679;-90
2022/08/29 01:41:42;;;;;;;33.90;10.85;;;17.30;92.40;;;;;;4992471;28;20237;-90
2022/08/29 01:44:11;;;;;;;32.13;11.57;;;17.30;92.40;;;;;;4992827;28;20182;-90
2022/08/29 01:46:38;;;;;;;34.20;11.25;;;17.30;92.40;;;;;;4992619;28;20178;-89
2022/08/29 01:49:07;;;;;;;29.65;10.43;;;17.30;92.50;;;;;;4992366;28;20174;-90
2022/08/29 01:51:34;;;;;;;24.95;10.15;;;17.30;92.60;;;;;;4992455;28;20286;-90
2022/08/29 01:54:00;;;;;;;25.05;10.52;;;17.40;92.60;;;;;;4993682;28;20192;-90
2022/08/29 01:56:29;;;;;;;29.17;10.02;;;17.40;92.60;;;;;;4992277;28;20174;-90
2022/08/29 01:58:59;;;;;;;38.03;9.73;;;17.50;92.60;;;;;;4992258;28;20182;-90
2022/08/29 02:01:29;;;;;;;24.48;10.20;;;17.50;92.60;;;;;;4992248;28;20202;-90
2022/08/29 02:03:57;;;;;;;30.92;11.45;;;17.50;92.60;;;;;;4993476;28;20154;-90
2022/08/29 02:06:23;;;;;;;30.40;10.75;;;17.50;92.60;;;;;;4996210;28;20177;-88
2022/08/29 02:08:49;;;;;;;32.65;11.25;;;17.50;92.60;;;;;;4995546;28;20201;-90
2022/08/29 02:11:16;;;;;;;27.30;10.13;;;17.50;92.60;;;;;;4996847;28;20637;-90
2022/08/29 02:13:47;;;;;;;18.98;10.10;;;17.50;92.60;;;;;;4995641;28;20178;-90
2022/08/29 02:16:14;;;;;;;29.08;10.13;;;17.60;92.60;;;;;;4995459;28;20633;-89
2022/08/29 02:18:41;;;;;;;24.83;11.00;;;17.60;92.60;;;;;;4996604;28;20540;-90
2022/08/29 02:21:08;;;;;;;26.77;11.18;;;17.70;92.50;;;;;;4995471;28;20186;-89
2022/08/29 02:23:35;;;;;;;23.13;11.27;;;17.70;92.40;;;;;;4995441;28;20181;-90
2022/08/29 02:26:01;;;;;;;23.20;10.38;;;17.70;92.30;;;;;;4995345;28;20577;-89
2022/08/29 02:28:26;;;;;;;25.67;11.85;;;17.70;92.30;;;;;;4995301;28;20228;-89
2022/08/29 02:30:53;;;;;;;23.50;10.85;;;17.70;92.20;;;;;;4995363;28;20189;-89
2022/08/29 02:33:19;;;;;;;16.98;10.15;;;17.60;92.00;;;;;;4995128;28;20305;-90
2022/08/29 02:35:47;;;;;;;25.02;10.73;;;17.50;91.90;;;;;;4995204;28;20198;-90
2022/08/29 02:38:13;;;;;;;22.08;10.57;;;17.50;91.80;;;;;;4996624;28;20225;-89
2022/08/29 02:40:38;;;;;;;25.05;10.07;;;17.50;91.70;;;;;;4995154;28;20265;-90
2022/08/29 02:43:05;;;;;;;20.13;10.63;;;17.40;91.60;;;;;;4994972;28;20250;-91
2022/08/29 02:45:30;;;;;;;23.58;11.20;;;17.40;91.60;;;;;;4995090;28;20181;-90
2022/08/29 02:47:57;;;;;;;18.70;10.18;;;17.30;91.50;;;;;;4995182;28;20696;-90
2022/08/29 02:50:24;;;;;;;20.25;11.20;;;17.30;91.50;;;;;;4995859;28;20186;-90
2022/08/29 02:52:51;;;;;;;17.27;10.85;;;17.20;91.40;;;;;;4995098;28;20684;-89
2022/08/29 02:55:18;;;;;;;21.77;10.30;;;17.20;91.40;;;;;;4994614;28;20231;-90
2022/08/29 02:57:44;;;;;;;19.83;11.15;;;17.20;91.30;;;;;;4994909;28;20178;-90
2022/08/29 03:00:15;;;;;;;22.50;10.57;;;17.10;91.20;;;;;;4995472;28;20273;-90
2022/08/29 03:02:41;;;;;;;17.13;10.45;;;17.10;91.30;;;;;;4994751;28;20195;-90
2022/08/29 03:05:07;;;;;;;17.77;10.57;;;17.00;91.20;;;;;;4994666;28;20178;-90
2022/08/29 03:07:32;;;;;;;18.27;11.57;;;17.00;91.10;;;;;;4995630;28;20185;-90
2022/08/29 03:09:58;;;;;;;16.92;10.13;;;16.90;91.10;;;;;;4994565;28;20264;-90
2022/08/29 03:12:23;;;;;;;18.00;10.25;;;16.80;91.10;;;;;;4994617;28;20225;-90
2022/08/29 03:14:49;;;;;;;18.98;10.40;;;16.70;91.10;;;;;;4995246;28;20225;-90
2022/08/29 03:17:15;;;;;;;18.63;11.57;;;16.70;91.20;;;;;;4993318;28;20178;-91
2022/08/29 03:19:40;;;;;;;19.80;12.18;;;16.60;91.10;;;;;;4994427;28;20174;-90
2022/08/29 03:22:06;;;;;;;18.40;11.27;;;16.70;91.40;;;;;;4994516;28;20198;-90
2022/08/29 03:24:34;;;;;;;20.40;11.88;;;16.50;91.50;;;;;;4994663;28;20645;-90
2022/08/29 03:27:00;;;;;;;22.08;12.30;;;16.50;91.70;;;;;;4994660;28;20524;-90
2022/08/29 03:29:26;;;;;;;16.80;11.13;;;16.40;91.80;;;;;;4996074;28;20531;-90
2022/08/29 03:31:52;;;;;;;17.70;10.95;;;16.40;91.80;;;;;;4993918;28;20304;-90
2022/08/29 03:34:18;;;;;;;15.85;11.27;;;16.30;91.80;;;;;;4993974;28;20611;-89
2022/08/29 03:36:43;;;;;;;16.58;11.30;;;16.30;91.90;;;;;;4994324;28;20177;-89
2022/08/29 03:39:09;;;;;;;18.02;11.23;;;16.30;91.80;;;;;;4994099;28;20190;-90
2022/08/29 03:41:35;;;;;;;19.50;12.18;;;16.30;91.90;;;;;;4994042;28;20707;-90
2022/08/29 03:44:01;;;;;;;19.30;11.75;;;16.30;92.10;;;;;;4993850;28;20245;-90
2022/08/29 03:46:26;;;;;;;16.80;11.43;;;16.30;92.20;;;;;;4994977;28;20711;-90
2022/08/29 03:48:52;;;;;;;22.73;12.70;;;16.30;92.20;;;;;;4993825;28;20273;-90
2022/08/29 03:51:18;;;;;;;19.67;11.35;;;16.30;92.20;;;;;;4993943;28;20174;-90
2022/08/29 03:53:45;;;;;;;15.70;11.95;;;16.40;92.20;;;;;;4993706;28;20178;-90
2022/08/29 03:56:11;;;;;;;17.45;11.23;;;16.40;92.20;;;;;;4993517;28;20206;-89
2022/08/29 03:58:38;;;;;;;21.83;11.57;;;16.40;92.20;;;;;;4993520;28;20562;-89
2022/08/29 04:01:04;;;;;;;22.33;10.95;;;16.40;92.30;;;;;;4993418;28;20273;-89
2022/08/29 04:03:29;;;;;;;22.15;11.13;;;16.40;92.30;;;;;;4993616;28;20174;-89
2022/08/29 04:05:55;;;;;;;16.42;11.20;;;16.40;92.10;;;;;;4993466;28;20177;-90
2022/08/29 04:08:20;;;;;;;17.27;11.45;;;16.30;92.10;;;;;;4993630;28;20182;-90
2022/08/29 04:10:46;;;;;;;15.20;10.63;;;16.30;92.10;;;;;;4993486;28;20178;-90
2022/08/29 04:13:12;;;;;;;15.93;10.65;;;16.30;92.10;;;;;;4993229;28;20577;-91
2022/08/29 04:15:42;;;;;;;19.55;10.27;;;16.30;92.00;;;;;;4993535;28;20224;-89
2022/08/29 04:18:09;;;;;;;18.35;10.57;;;16.30;92.00;;;;;;4993159;28;20189;-90
2022/08/29 04:20:38;;;;;;;15.30;10.15;;;16.40;92.00;;;;;;4993228;28;20181;-89
2022/08/29 04:23:05;;;;;;;19.15;11.32;;;16.40;92.00;;;;;;4993400;28;20222;-90
2022/08/29 04:25:35;;;;;;;15.07;10.70;;;16.50;92.00;;;;;;4993370;28;20204;-90
2022/08/29 04:28:02;;;;;;;15.52;11.63;;;16.50;92.00;;;;;;4993137;28;20232;-90
2022/08/29 04:30:28;;;;;;;14.82;11.07;;;16.50;91.90;;;;;;4993577;28;20177;-90
2022/08/29 04:32:55;;;;;;;15.73;11.43;;;16.40;91.80;;;;;;4993481;28;20328;-88
2022/08/29 04:35:20;;;;;;;19.23;10.60;;;16.40;91.90;;;;;;4994421;28;20365;-89
2022/08/29 04:37:46;;;;;;;13.75;10.32;;;16.40;91.80;;;;;;4993576;28;20534;-90
2022/08/29 04:40:14;;;;;;;14.20;10.35;;;16.50;91.80;;;;;;4994236;28;20201;-89
2022/08/29 04:42:40;;;;;;;13.98;10.80;;;16.50;91.80;;;;;;4993349;28;20194;-90
2022/08/29 04:45:10;;;;;;;17.25;10.20;;;16.50;91.70;;;;;;4993248;28;20189;-90
2022/08/29 04:47:36;;;;;;;14.05;10.40;;;16.50;91.70;;;;;;4992905;28;20559;-88
2022/08/29 04:50:03;;;;;;;11.95;10.18;;;16.50;91.70;;;;;;4993156;28;20178;-90
2022/08/29 04:52:29;;;;;;;16.83;10.30;;;16.50;91.70;;;;;;4993456;28;20198;-90
2022/08/29 04:54:54;;;;;;;16.33;9.95;;;16.50;91.60;;;;;;4993653;28;20722;-90
2022/08/29 04:57:20;;;;;;;14.68;10.18;;;16.40;91.60;;;;;;4993496;28;20178;-91
2022/08/29 04:59:46;;;;;;;15.73;10.15;;;16.50;91.50;;;;;;4993708;28;20324;-90
2022/08/29 05:02:12;;;;;;;19.83;9.32;;;16.40;91.40;;;;;;4993230;28;20206;-89
2022/08/29 05:04:37;;;;;;;14.68;10.35;;;16.40;91.30;;;;;;4993949;28;20182;-88
2022/08/29 05:07:03;;;;;;;11.95;9.32;;;16.50;91.20;;;;;;4995034;28;20173;-91
2022/08/29 05:09:29;;;;;;;16.85;10.65;;;16.40;90.90;;;;;;4995458;28;20248;-91
2022/08/29 05:11:54;;;;;;;12.43;10.07;;;16.30;90.80;;;;;;4992980;28;20205;-89
2022/08/29 05:14:20;;;;;;;10.43;8.90;;;16.20;90.90;;;;;;4992465;28;20696;-89
2022/08/29 05:16:47;;;;;;;12.02;10.35;;;16.30;91.00;;;;;;4993047;28;20181;-90
2022/08/29 05:19:12;;;;;;;14.88;10.05;;;16.20;90.70;;;;;;4992713;28;20683;-89
2022/08/29 05:21:39;;;;;;;13.30;10.40;;;16.10;90.90;;;;;;4992527;28;20205;-89
2022/08/29 05:24:08;;;;;;;15.95;10.00;;;16.20;90.90;;;;;;4994419;28;20209;-90
2022/08/29 05:26:41;;;;;;;17.50;10.05;;;16.10;91.00;;;;;;4992843;28;20534;-91
2022/08/29 05:29:08;;;;;;;12.82;9.80;;;16.20;91.10;;;;;;4992655;28;20257;-89
2022/08/29 05:31:35;;;;;;;12.45;9.45;;;16.30;91.10;;;;;;4992673;28;20216;-90
2022/08/29 05:34:01;;;;;;;13.60;8.73;;;16.30;91.10;;;;;;4992642;28;20178;-91
2022/08/29 05:36:27;;;;;;;13.68;9.70;;;16.40;91.00;;;;;;4993619;28;20174;-87
2022/08/29 05:38:53;;;;;;;17.42;9.73;;;16.30;90.90;;;;;;4993662;28;20176;-87
2022/08/29 05:41:18;;;;;;;11.82;8.57;;;16.40;90.90;;;;;;4998735;28;20767;-87
2022/08/29 05:43:44;;;;;;;13.93;9.50;;;16.40;90.90;;;;;;5001109;28;20178;-87
2022/08/29 05:46:10;;;;;;;28.88;9.02;;;16.50;90.90;;;;;;5003242;28;20174;-87
2022/08/29 05:48:39;;;;;;;18.40;8.60;;;16.60;90.80;;;;;;4999503;28;20288;-87
2022/08/29 05:51:05;;;;;;;16.75;7.95;;;16.60;90.70;;;;;;5002746;28;20225;-87
2022/08/29 05:53:32;;;;;;;9.82;7.78;;;16.60;90.50;;;;;;4998921;28;20190;-87
2022/08/29 05:55:57;;;;;;;16.75;8.20;;;16.60;90.40;;;;;;4999017;28;20194;-88
2022/08/29 05:58:23;;;;;;;11.60;7.55;;;16.60;90.30;;;;;;4999577;28;20181;-87
2022/08/29 06:00:48;;;;;;;11.70;7.03;;;16.60;90.30;;;;;;4999318;28;20201;-90
2022/08/29 06:03:14;;;;;;;9.60;6.93;;;16.60;90.30;;;;;;5009052;28;20201;-92
2022/08/29 06:05:40;;;;;;;8.10;6.70;;;16.50;90.20;;;;;;4999363;28;20185;-88
2022/08/29 06:08:06;;;;;;;8.77;6.72;;;16.60;90.20;;;;;;4997109;28;20178;-87
2022/08/29 06:10:37;;;;;;;10.32;6.13;;;16.60;90.10;;;;;;5000540;28;20178;-87
2022/08/29 06:13:03;;;;;;;9.75;6.00;;;16.50;90.10;;;;;;5003220;28;20687;-87
2022/08/29 06:15:28;;;;;;;6.93;6.22;;;16.60;90.00;;;;;;5003523;28;20228;-87
2022/08/29 06:17:54;;;;;;;7.18;5.82;;;16.50;90.00;;;;;;5003445;28;20209;-87
2022/08/29 06:20:20;;;;;;;7.80;5.30;;;16.60;90.00;;;;;;5005154;28;20170;-87
2022/08/29 06:22:46;;;;;;;7.82;4.65;;;16.60;89.80;;;;;;5002749;28;20650;-88
2022/08/29 06:25:12;;;;;;;11.82;5.40;;;16.60;89.80;;;;;;5000761;28;20186;-88
2022/08/29 06:27:37;;;;;;;6.10;4.95;;;16.70;89.60;;;;;;5003925;28;20174;-87
2022/08/29 06:30:05;;;;;;;7.15;5.03;;;16.70;89.40;;;;;;5000086;28;20202;-87
2022/08/29 06:32:30;;;;;;;5.90;4.85;;;16.70;89.30;;;;;;4999133;28;20218;-87
2022/08/29 06:34:56;;;;;;;7.05;4.80;;;16.70;89.10;;;;;;5001611;28;20226;-87
2022/08/29 06:37:22;;;;;;;6.10;5.00;;;16.70;89.00;;;;;;5001744;28;20177;-87
2022/08/29 06:39:47;;;;;;;7.28;4.80;;;16.70;88.90;;;;;;5000535;28;20178;-88
2022/08/29 06:42:13;;;;;;;8.77;5.13;;;16.80;88.80;;;;;;5005307;28;20292;-88
2022/08/29 06:44:38;;;;;;;6.10;5.47;;;16.80;88.70;;;;;;5003782;28;20182;-87
2022/08/29 06:47:04;;;;;;;6.55;4.18;;;16.70;88.60;;;;;;5001544;28;20167;-87
2022/08/29 06:49:32;;;;;;;6.88;3.45;;;16.80;88.60;;;;;;5000775;28;20178;-87
2022/08/29 06:51:58;;;;;;;6.05;4.38;;;16.90;88.20;;;;;;4999715;28;20197;-86
2022/08/29 06:54:25;;;;;;;4.20;3.80;;;16.90;88.00;;;;;;5001787;28;20201;-86
2022/08/29 06:56:50;;;;;;;6.75;3.85;;;17.00;87.70;;;;;;5001694;28;20170;-86
2022/08/29 06:59:18;;;;;;;3.95;2.90;;;17.00;87.60;;;;;;4998371;28;20178;-87
2022/08/29 07:01:44;;;;;;;3.50;2.47;;;17.00;87.30;;;;;;4998471;28;20244;-87
2022/08/29 07:04:10;;;;;;;2.72;2.30;;;16.90;87.00;;;;;;4996158;28;20230;-88
2022/08/29 07:06:37;;;;;;;2.97;2.45;;;17.00;86.40;;;;;;4996559;28;20193;-88
2022/08/29 07:09:03;;;;;;;4.55;2.90;;;17.00;86.10;;;;;;4995943;28;20178;-88
2022/08/29 07:11:30;;;;;;;3.97;2.30;;;17.20;86.50;;;;;;4995465;28;20198;-88
2022/08/29 07:13:58;;;;;;;4.00;2.40;;;17.20;85.70;;;;;;4995812;28;20178;-86
2022/08/29 07:16:24;;;;;;;7.20;3.30;;;17.20;85.60;;;;;;4997864;28;20294;-88
2022/08/29 07:18:50;;;;;;;3.97;2.40;;;17.20;85.40;;;;;;4997943;28;20229;-88
2022/08/29 07:21:18;;;;;;;3.72;1.90;;;17.30;85.40;;;;;;4999154;28;20174;-87
2022/08/29 07:23:43;;;;;;;1.85;1.50;;;17.30;84.70;;;;;;5000245;28;20730;-87
2022/08/29 07:26:21;;;;;;;2.05;1.85;;;17.30;84.10;;;;;;4997469;28;20182;-87
2022/08/29 07:28:49;;;;;;;2.65;1.80;;;17.30;84.30;;;;;;4998146;28;20166;-87
2022/08/29 07:31:15;;;;;;;3.65;2.15;;;17.30;84.00;;;;;;4996635;28;20193;-87
2022/08/29 07:33:40;;;;;;;2.97;2.10;;;17.40;84.00;;;;;;5040698;23;20221;-91
2022/08/29 07:36:06;;;;;;;2.45;1.95;;;17.50;84.00;;;;;;5035253;28;20209;-91
2022/08/29 07:38:33;;;;;;;2.92;2.13;;;17.60;84.00;;;;;;5017858;28;20170;-92
2022/08/29 07:41:07;;;;;;;5.45;2.22;;;17.60;84.10;;;;;;5034844;28;20177;-92
2022/08/29 07:43:34;;;;;;;6.68;2.30;;;17.60;84.30;;;;;;5010577;28;20292;-92
2022/08/29 07:46:08;;;;;;;7.25;2.50;;;17.70;84.60;;;;;;4999379;28;20173;-92
2022/08/29 07:48:34;;;;;;;6.15;2.60;;;17.70;84.50;;;;;;5000321;28;20158;-92
2022/08/29 07:50:59;;;;;;;4.82;2.78;;;17.80;84.20;;;;;;5000099;28;20205;-92
2022/08/29 07:53:25;;;;;;;3.55;2.40;;;17.90;84.20;;;;;;4999483;28;20194;-89
2022/08/29 07:55:50;;;;;;;5.68;1.98;;;18.00;83.80;;;;;;4997003;28;20255;-91
2022/08/29 07:58:16;;;;;;;3.28;2.10;;;18.10;82.60;;;;;;4997239;28;20188;-88
2022/08/29 08:00:42;;;;;;;4.22;2.30;;;18.20;83.60;;;;;;4997710;28;20174;-89
2022/08/29 08:03:09;;;;;;;14.57;2.40;;;18.20;83.20;;;;;;4996723;28;20197;-88
2022/08/29 08:05:36;;;;;;;6.07;2.65;;;18.20;83.00;;;;;;4997544;28;20178;-89
2022/08/29 08:08:03;;;;;;;3.00;2.05;;;18.20;82.10;;;;;;5017653;28;20184;-90
2022/08/29 08:10:28;;;;;;;6.07;2.10;;;18.30;82.50;;;;;;4997179;28;20177;-91
2022/08/29 08:12:54;;;;;;;7.75;2.30;;;18.40;82.80;;;;;;4996868;28;20672;-90
2022/08/29 08:15:21;;;;;;;4.07;2.35;;;18.50;83.20;;;;;;4998067;28;20327;-90
2022/08/29 08:17:52;;;;;;;3.20;2.08;;;18.60;82.90;;;;;;4998192;28;20196;-91
2022/08/29 08:20:18;;;;;;;3.03;2.05;;;18.60;82.50;;;;;;4999374;28;20165;-89
2022/08/29 08:22:43;;;;;;;5.57;2.33;;;18.60;81.70;;;;;;5001518;28;20679;-92
2022/08/29 08:25:09;;;;;;;17.92;11.95;;;18.70;81.80;;;;;;5014404;28;20165;-91
2022/08/29 08:27:35;;;;;;;26.00;16.85;;;18.70;81.90;;;;;;5018511;28;20232;-92
2022/08/29 08:30:00;;;;;;;5.88;2.90;;;18.80;81.10;;;;;;5017615;28;20245;-91
2022/08/29 08:32:26;;;;;;;5.70;2.30;;;18.90;81.50;;;;;;5007149;28;20193;-91
2022/08/29 08:34:51;;;;;;;4.80;2.20;;;19.00;80.50;;;;;;5000606;28;20217;-88
2022/08/29 08:37:17;;;;;;;2.13;1.92;;;19.00;80.40;;;;;;4997832;28;20224;-90
2022/08/29 08:39:43;;;;;;;5.80;2.35;;;19.00;80.30;;;;;;4999191;28;20650;-90
2022/08/29 08:42:24;;;;;;;3.30;2.33;;;19.10;80.20;;;;;;4996498;28;20197;-88
2022/08/29 08:45:03;;;;;;;7.55;2.10;;;19.20;79.90;;;;;;5013905;28;20579;-87
2022/08/29 08:47:38;;;;;;;2.78;1.92;;;19.20;79.80;;;;;;5016291;28;20167;-88
2022/08/29 08:50:25;;;;;;;8.15;2.42;;;19.30;80.20;;;;;;4998132;28;20230;-89
2022/08/29 08:52:54;;;;;;;6.80;2.20;;;19.40;79.20;;;;;;4995972;28;20201;-88
2022/08/29 08:55:32;;;;;;;4.55;2.30;;;19.40;80.20;;;;;;4996224;28;20211;-89
2022/08/29 08:58:22;;;;;;;4.60;2.47;;;19.50;79.50;;;;;;4996226;28;20169;-89
2022/08/29 09:00:59;;;;;;;4.07;1.70;;;19.60;78.60;;;;;;4997116;28;20171;-88
2022/08/29 09:04:12;;;;;;;1.83;1.52;;;19.60;78.60;;;;;;5013998;28;20181;-88
2022/08/29 09:06:58;;;;;;;5.72;1.80;;;19.70;78.40;;;;;;4992910;28;20236;-89
2022/08/29 09:10:01;;;;;;;7.70;2.00;;;19.70;77.80;;;;;;4997131;28;20583;-89
2022/08/29 09:13:05;;;;;;;2.75;1.95;;;19.70;77.80;;;;;;5001844;28;20227;-89
2022/08/29 09:15:39;;;;;;;3.15;1.50;;;19.80;76.90;;;;;;5001999;28;20252;-90
2022/08/29 09:18:10;;;;;;;4.50;1.63;;;19.80;77.10;;;;;;5004689;28;20685;-90
2022/08/29 09:20:38;;;;;;;5.63;1.50;;;19.80;76.90;;;;;;5005575;28;20173;-90
2022/08/29 09:23:24;;;;;;;3.90;1.60;;;19.80;76.30;;;;;;5003777;28;20194;-90
2022/08/29 09:25:49;;;;;;;1.65;1.30;;;19.90;75.80;;;;;;5003170;28;20169;-91
2022/08/29 09:28:15;;;;;;;3.10;1.48;;;19.90;76.20;;;;;;5002406;28;20181;-89
2022/08/29 09:30:44;;;;;;;1.88;1.30;;;20.00;76.10;;;;;;5001192;28;20644;-90
2022/08/29 09:33:13;;;;;;;2.55;1.02;;;20.10;75.20;;;;;;4999349;28;20209;-90
2022/08/29 09:35:50;;;;;;;2.20;1.02;;;20.10;73.30;;;;;;5017851;28;20224;-90
2022/08/29 09:38:16;;;;;;;1.70;1.00;;;20.00;73.70;;;;;;5000499;28;20166;-89
2022/08/29 09:40:47;;;;;;;6.82;1.30;;;20.00;74.60;;;;;;5002309;28;20240;-90
2022/08/29 09:43:24;;;;;;;3.25;1.50;;;20.00;75.50;;;;;;5017305;28;20185;-90
2022/08/29 09:46:15;;;;;;;2.75;1.10;;;20.00;75.40;;;;;;5017203;28;20188;-90
2022/08/29 09:48:50;;;;;;;3.95;1.17;;;20.00;74.60;;;;;;5018151;28;20645;-91
2022/08/29 09:51:23;;;;;;;1.30;0.82;;;20.20;74.50;;;;;;4999456;28;20177;-91
2022/08/29 09:53:51;;;;;;;1.63;0.80;;;20.20;73.60;;;;;;4999244;28;20569;-90
2022/08/29 09:56:22;;;;;;;2.83;1.08;;;20.30;72.70;;;;;;4999241;28;20227;-90
2022/08/29 09:58:59;;;;;;;3.78;1.00;;;20.30;73.60;;;;;;5016983;28;20165;-90
2022/08/29 10:01:25;;;;;;;3.38;0.82;;;20.30;72.90;;;;;;4999379;28;20187;-90
2022/08/29 10:03:57;;;;;;;2.22;1.10;;;20.20;72.80;;;;;;4999812;28;20751;-90
2022/08/29 10:06:27;;;;;;;0.88;0.75;;;20.20;72.70;;;;;;5017282;28;20162;-91
2022/08/29 10:09:06;;;;;;;1.95;1.00;;;20.10;73.40;;;;;;5000949;28;20173;-90
2022/08/29 10:11:42;;;;;;;0.90;0.90;;;20.10;73.30;;;;;;5001525;28;20211;-91
2022/08/29 10:14:32;;;;;;;6.97;1.20;;;20.00;73.50;;;;;;5017287;28;20193;-90
2022/08/29 10:18:19;;;;;;;1.52;0.90;;;19.90;73.90;;;;;;4999169;28;20169;-90
2022/08/29 10:19:45;;;;;;;3.78;1.27;;;20.00;74.00;;;;;;5017283;28;20173;-90
2022/08/29 10:22:19;;;;;;;2.25;1.13;;;20.10;74.70;;;;;;4999240;28;20228;-90
2022/08/29 10:25:26;;;;;;;2.05;1.00;;;19.90;74.70;;;;;;4999873;28;20181;-90
2022/08/29 10:28:10;;;;;;;13.45;12.07;;;19.90;74.70;;;;;;5013110;28;20271;-91
2022/08/29 10:30:49;;;;;;;4.72;1.80;;;19.90;74.10;;;;;;5018207;28;20628;-91
2022/08/29 10:34:07;;;;;;;0.88;0.80;;;19.90;73.90;;;;;;5016935;28;20220;-89
2022/08/29 10:36:37;;;;;;;0.95;0.95;;;19.90;73.70;;;;;;4946073;28;20231;-87
2022/08/29 10:39:13;;;;;;;2.88;1.15;;;19.90;74.30;;;;;;4998299;28;20153;-87
2022/08/29 10:42:06;;;;;;;1.58;0.90;;;20.00;74.50;;;;;;4998212;28;20659;-87
2022/08/29 10:44:41;;;;;;;3.47;1.20;;;20.00;73.70;;;;;;4998201;28;20161;-88
2022/08/29 10:47:13;;;;;;;3.17;1.33;;;20.00;73.70;;;;;;5015668;28;20702;-86
2022/08/29 10:49:57;;;;;;;3.42;1.02;;;19.90;73.70;;;;;;5015818;28;20609;-87
2022/08/29 10:52:34;;;;;;;1.92;0.95;;;20.00;73.90;;;;;;5015565;28;20279;-87
2022/08/29 10:55:21;;;;;;;2.80;1.25;;;20.10;73.20;;;;;;4998427;28;20196;-87
2022/08/29 10:58:01;;;;;;;2.65;1.10;;;20.00;73.00;;;;;;4998063;28;20158;-86
2022/08/29 11:00:54;;;;;;;1.25;0.82;;;20.00;73.10;;;;;;4997924;28;20643;-87
2022/08/29 11:03:48;;;;;;;1.95;0.98;;;20.20;73.20;;;;;;5010621;28;20209;-87
2022/08/29 11:06:23;;;;;;;1.50;0.85;;;20.30;73.00;;;;;;5015449;28;20245;-87
2022/08/29 11:08:52;;;;;;;2.65;1.10;;;20.50;72.30;;;;;;4997815;28;20184;-87
2022/08/29 11:11:21;;;;;;;4.65;1.15;;;20.70;71.10;;;;;;4997653;28;20188;-87
2022/08/29 11:13:53;;;;;;;2.63;1.20;;;20.70;70.40;;;;;;4997908;28;20194;-87
2022/08/29 11:16:27;;;;;;;1.67;0.82;;;20.80;70.20;;;;;;4997894;28;20312;-87
2022/08/29 11:19:19;;;;;;;2.22;0.93;;;20.80;70.00;;;;;;4997586;28;20256;-87
2022/08/29 11:22:19;;;;;;;1.30;0.75;;;20.80;69.40;;;;;;4998364;28;20172;-87
2022/08/29 11:25:04;;;;;;;1.65;0.93;;;20.90;69.10;;;;;;4997455;28;20184;-87
2022/08/29 11:27:50;;;;;;;1.63;1.05;;;21.10;68.60;;;;;;4997303;28;20181;-88
2022/08/29 11:30:30;;;;;;;3.63;1.05;;;21.00;68.60;;;;;;5014944;28;20543;-86
2022/08/29 11:33:23;;;;;;;2.80;0.90;;;21.20;68.40;;;;;;4998110;28;20228;-88
2022/08/29 11:36:09;;;;;;;3.13;1.08;;;21.10;67.40;;;;;;5014753;28;20283;-86
2022/08/29 11:39:08;;;;;;;6.07;1.13;;;21.20;68.70;;;;;;4993166;28;20189;-87
2022/08/29 11:41:37;;;;;;;8.60;1.17;;;21.10;67.80;;;;;;4997173;28;20166;-87
2022/08/29 11:44:25;;;;;;;3.30;1.27;;;21.10;68.80;;;;;;4997010;28;20738;-86
2022/08/29 11:46:52;;;;;;;1.48;0.93;;;21.10;68.20;;;;;;4996933;28;20718;-87
2022/08/29 11:49:36;;;;;;;1.08;1.00;;;20.90;68.10;;;;;;4997204;28;20545;-86
2022/08/29 11:52:09;;;;;;;1.10;0.98;;;20.90;68.10;;;;;;4997660;28;20169;-87
2022/08/29 11:54:35;;;;;;;2.78;1.00;;;20.90;69.10;;;;;;4996782;28;20201;-86
2022/08/29 11:57:01;;;;;;;1.90;1.10;;;20.90;70.00;;;;;;4996893;28;20176;-86
2022/08/29 11:59:48;;;;;;;3.05;1.10;;;20.90;70.20;;;;;;5014411;28;20173;-87
2022/08/29 12:02:26;;;;;;;3.22;0.77;;;20.90;69.00;;;;;;4996704;28;20220;-86
2022/08/29 12:04:58;;;;;;;1.38;0.80;;;20.90;68.90;;;;;;4996777;28;20277;-86
2022/08/29 12:07:35;;;;;;;1.23;1.10;;;20.90;68.80;;;;;;4996757;28;20268;-86
2022/08/29 12:10:03;;;;;;;3.58;1.08;;;21.00;68.40;;;;;;4996602;28;20188;-86
2022/08/29 12:12:48;;;;;;;1.92;1.17;;;21.00;68.20;;;;;;4996457;28;20201;-86
2022/08/29 12:15:28;;;;;;;4.50;1.10;;;21.00;68.50;;;;;;5014295;28;20186;-86
2022/08/29 12:18:06;;;;;;;4.70;1.10;;;20.90;68.40;;;;;;4996421;28;20181;-86
2022/08/29 12:20:32;;;;;;;1.80;1.10;;;20.70;69.50;;;;;;5014217;28;20172;-87
2022/08/29 12:23:00;;;;;;;3.28;1.23;;;20.70;70.20;;;;;;4996455;28;20338;-89
2022/08/29 12:25:26;;;;;;;3.78;1.23;;;20.50;70.20;;;;;;4996274;28;20200;-89
2022/08/29 12:27:54;;;;;;;2.75;1.30;;;20.50;69.70;;;;;;5013800;28;20679;-86
2022/08/29 12:30:20;;;;;;;1.77;1.00;;;20.40;69.80;;;;;;4996244;28;20177;-87
2022/08/29 12:33:02;;;;;;;1.98;1.10;;;20.30;69.90;;;;;;4996126;28;20208;-86
2022/08/29 12:35:56;;;;;;;1.85;1.13;;;20.40;71.10;;;;;;5013624;28;20235;-86
2022/08/29 12:38:35;;;;;;;5.75;1.17;;;20.30;70.80;;;;;;5014096;28;20296;-86
2022/08/29 12:41:32;;;;;;;3.22;1.33;;;20.40;71.60;;;;;;4996939;28;20162;-86
2022/08/29 12:44:01;;;;;;;4.97;1.50;;;20.50;70.60;;;;;;4995957;28;20698;-86
2022/08/29 12:46:40;;;;;;;3.78;1.20;;;20.50;70.40;;;;;;5013615;28;20174;-86
2022/08/29 12:49:25;;;;;;;10.65;1.35;;;20.60;69.80;;;;;;4995840;28;20304;-86
2022/08/29 12:51:59;;;;;;;1.42;1.02;;;20.60;70.70;;;;;;5013404;28;20177;-87
2022/08/29 12:54:31;;;;;;;1.77;1.08;;;20.70;69.70;;;;;;5013572;28;20157;-87
2022/08/29 12:56:58;;;;;;;1.38;1.00;;;20.70;69.60;;;;;;4995837;28;20181;-86
2022/08/29 12:59:23;;;;;;;2.55;1.50;;;20.70;69.50;;;;;;4995923;28;20177;-86